sensor_id;sensor_type;location;lat;lon;timestamp;P1;durP1;ratioP1;P2;durP2;ratioP2
42616;SDS011;28250;52.320;0.360;2023-07-31T00:00:37;9.80;;;3.35;;
42616;SDS011;28250;52.320;0.360;2023-07-31T00:03:03;9.50;;;3.10;;
42616;SDS011;28250;52.320;0.360;2023-07-31T00:05:29;8.35;;;3.55;;
42616;SDS011;28250;52.320;0.360;2023-07-31T00:07:55;8.63;;;3.38;;
42616;SDS011;28250;52.320;0.360;2023-07-31T00:10:21;9.25;;;3.20;;
42616;SDS011;28250;52.320;0.360;2023-07-31T00:12:47;12.55;;;3.60;;
42616;SDS011;28250;52.320;0.360;2023-07-31T00:15:13;13.75;;;3.05;;
42616;SDS011;28250;52.320;0.360;2023-07-31T00:17:40;9.13;;;3.67;;
42616;SDS011;28250;52.320;0.360;2023-07-31T00:20:06;10.73;;;3.25;;
42616;SDS011;28250;52.320;0.360;2023-07-31T00:22:33;10.63;;;3.40;;
42616;SDS011;28250;52.320;0.360;2023-07-31T00:24:59;11.73;;;3.42;;
42616;SDS011;28250;52.320;0.360;2023-07-31T00:27:25;7.82;;;3.55;;
42616;SDS011;28250;52.320;0.360;2023-07-31T00:29:52;11.73;;;3.85;;
42616;SDS011;28250;52.320;0.360;2023-07-31T00:32:18;9.60;;;3.22;;
42616;SDS011;28250;52.320;0.360;2023-07-31T00:34:43;10.65;;;2.97;;
42616;SDS011;28250;52.320;0.360;2023-07-31T00:37:09;8.25;;;3.42;;
42616;SDS011;28250;52.320;0.360;2023-07-31T00:39:36;8.02;;;3.33;;
42616;SDS011;28250;52.320;0.360;2023-07-31T00:42:02;10.05;;;3.40;;
42616;SDS011;28250;52.320;0.360;2023-07-31T00:44:28;7.47;;;3.10;;
42616;SDS011;28250;52.320;0.360;2023-07-31T00:46:54;12.18;;;3.53;;
42616;SDS011;28250;52.320;0.360;2023-07-31T00:49:22;9.18;;;3.58;;
42616;SDS011;28250;52.320;0.360;2023-07-31T00:51:49;13.27;;;3.85;;
42616;SDS011;28250;52.320;0.360;2023-07-31T00:54:15;12.70;;;3.78;;
42616;SDS011;28250;52.320;0.360;2023-07-31T00:56:41;12.02;;;3.47;;
42616;SDS011;28250;52.320;0.360;2023-07-31T00:59:10;5.22;;;2.60;;
42616;SDS011;28250;52.320;0.360;2023-07-31T01:01:36;9.95;;;3.17;;
42616;SDS011;28250;52.320;0.360;2023-07-31T01:04:03;9.50;;;3.13;;
42616;SDS011;28250;52.320;0.360;2023-07-31T01:06:42;5.13;;;2.90;;
42616;SDS011;28250;52.320;0.360;2023-07-31T01:09:29;10.57;;;2.85;;
42616;SDS011;28250;52.320;0.360;2023-07-31T01:12:09;10.27;;;2.92;;
42616;SDS011;28250;52.320;0.360;2023-07-31T01:14:50;14.10;;;2.95;;
42616;SDS011;28250;52.320;0.360;2023-07-31T01:17:26;8.60;;;3.75;;
42616;SDS011;28250;52.320;0.360;2023-07-31T01:19:53;8.68;;;2.80;;
42616;SDS011;28250;52.320;0.360;2023-07-31T01:22:28;10.35;;;3.35;;
42616;SDS011;28250;52.320;0.360;2023-07-31T01:28:05;6.97;;;2.50;;
42616;SDS011;28250;52.320;0.360;2023-07-31T01:33:08;4.40;;;2.40;;
42616;SDS011;28250;52.320;0.360;2023-07-31T01:35:36;9.40;;;2.67;;
42616;SDS011;28250;52.320;0.360;2023-07-31T01:42:56;4.93;;;2.08;;
42616;SDS011;28250;52.320;0.360;2023-07-31T01:45:22;8.95;;;2.67;;
42616;SDS011;28250;52.320;0.360;2023-07-31T01:47:48;5.95;;;2.45;;
42616;SDS011;28250;52.320;0.360;2023-07-31T01:50:14;6.97;;;2.05;;
42616;SDS011;28250;52.320;0.360;2023-07-31T01:52:41;6.13;;;2.08;;
42616;SDS011;28250;52.320;0.360;2023-07-31T01:55:07;5.10;;;1.38;;
42616;SDS011;28250;52.320;0.360;2023-07-31T01:57:33;3.63;;;1.80;;
42616;SDS011;28250;52.320;0.360;2023-07-31T02:00:02;3.47;;;1.90;;
42616;SDS011;28250;52.320;0.360;2023-07-31T02:02:37;4.28;;;1.40;;
42616;SDS011;28250;52.320;0.360;2023-07-31T02:05:04;4.47;;;1.50;;
42616;SDS011;28250;52.320;0.360;2023-07-31T02:07:30;3.80;;;1.23;;
42616;SDS011;28250;52.320;0.360;2023-07-31T02:09:56;5.78;;;1.55;;
42616;SDS011;28250;52.320;0.360;2023-07-31T02:12:22;4.03;;;1.50;;
42616;SDS011;28250;52.320;0.360;2023-07-31T02:14:48;3.72;;;1.38;;
42616;SDS011;28250;52.320;0.360;2023-07-31T02:17:14;4.05;;;1.30;;
42616;SDS011;28250;52.320;0.360;2023-07-31T02:19:40;2.65;;;1.20;;
42616;SDS011;28250;52.320;0.360;2023-07-31T02:22:06;3.20;;;1.45;;
42616;SDS011;28250;52.320;0.360;2023-07-31T02:24:33;3.30;;;1.17;;
42616;SDS011;28250;52.320;0.360;2023-07-31T02:27:03;2.63;;;1.15;;
42616;SDS011;28250;52.320;0.360;2023-07-31T02:29:29;2.85;;;1.00;;
42616;SDS011;28250;52.320;0.360;2023-07-31T02:31:55;3.72;;;1.10;;
42616;SDS011;28250;52.320;0.360;2023-07-31T02:34:21;3.22;;;1.45;;
42616;SDS011;28250;52.320;0.360;2023-07-31T02:36:47;2.70;;;0.98;;
42616;SDS011;28250;52.320;0.360;2023-07-31T02:39:13;3.22;;;1.10;;
42616;SDS011;28250;52.320;0.360;2023-07-31T02:41:40;3.70;;;0.95;;
42616;SDS011;28250;52.320;0.360;2023-07-31T02:44:06;2.70;;;0.80;;
42616;SDS011;28250;52.320;0.360;2023-07-31T02:46:32;1.95;;;1.00;;
42616;SDS011;28250;52.320;0.360;2023-07-31T02:48:58;4.20;;;1.00;;
42616;SDS011;28250;52.320;0.360;2023-07-31T02:51:25;3.28;;;0.80;;
42616;SDS011;28250;52.320;0.360;2023-07-31T02:53:51;3.78;;;0.90;;
42616;SDS011;28250;52.320;0.360;2023-07-31T02:56:17;3.40;;;1.13;;
42616;SDS011;28250;52.320;0.360;2023-07-31T02:58:43;2.13;;;0.90;;
42616;SDS011;28250;52.320;0.360;2023-07-31T03:01:09;4.05;;;0.90;;
42616;SDS011;28250;52.320;0.360;2023-07-31T03:03:35;3.45;;;0.90;;
42616;SDS011;28250;52.320;0.360;2023-07-31T03:06:01;1.42;;;0.80;;
42616;SDS011;28250;52.320;0.360;2023-07-31T03:08:27;2.42;;;0.70;;
42616;SDS011;28250;52.320;0.360;2023-07-31T03:10:53;2.28;;;0.65;;
42616;SDS011;28250;52.320;0.360;2023-07-31T03:13:21;2.03;;;0.80;;
42616;SDS011;28250;52.320;0.360;2023-07-31T03:15:47;1.35;;;0.68;;
42616;SDS011;28250;52.320;0.360;2023-07-31T03:18:13;1.27;;;0.80;;
42616;SDS011;28250;52.320;0.360;2023-07-31T03:20:42;4.07;;;0.77;;
42616;SDS011;28250;52.320;0.360;2023-07-31T03:23:09;2.15;;;0.73;;
42616;SDS011;28250;52.320;0.360;2023-07-31T03:25:35;5.13;;;0.80;;
42616;SDS011;28250;52.320;0.360;2023-07-31T03:28:01;1.00;;;0.50;;
42616;SDS011;28250;52.320;0.360;2023-07-31T03:32:55;2.00;;;0.70;;
42616;SDS011;28250;52.320;0.360;2023-07-31T03:35:20;1.70;;;0.55;;
42616;SDS011;28250;52.320;0.360;2023-07-31T03:37:47;2.55;;;0.52;;
42616;SDS011;28250;52.320;0.360;2023-07-31T03:40:13;1.25;;;0.60;;
42616;SDS011;28250;52.320;0.360;2023-07-31T03:42:39;2.08;;;0.45;;
42616;SDS011;28250;52.320;0.360;2023-07-31T03:45:05;2.20;;;0.70;;
42616;SDS011;28250;52.320;0.360;2023-07-31T03:47:32;2.55;;;0.70;;
42616;SDS011;28250;52.320;0.360;2023-07-31T03:49:58;3.17;;;0.70;;
42616;SDS011;28250;52.320;0.360;2023-07-31T03:52:24;1.85;;;0.70;;
42616;SDS011;28250;52.320;0.360;2023-07-31T03:54:50;2.38;;;0.60;;
42616;SDS011;28250;52.320;0.360;2023-07-31T03:57:16;1.55;;;0.57;;
42616;SDS011;28250;52.320;0.360;2023-07-31T03:59:42;0.85;;;0.40;;
42616;SDS011;28250;52.320;0.360;2023-07-31T04:02:08;3.00;;;0.50;;
42616;SDS011;28250;52.320;0.360;2023-07-31T04:04:34;1.38;;;0.55;;
42616;SDS011;28250;52.320;0.360;2023-07-31T04:07:00;2.40;;;0.70;;
42616;SDS011;28250;52.320;0.360;2023-07-31T04:09:26;0.90;;;0.60;;
42616;SDS011;28250;52.320;0.360;2023-07-31T04:11:52;2.80;;;0.60;;
42616;SDS011;28250;52.320;0.360;2023-07-31T04:14:18;0.75;;;0.47;;
42616;SDS011;28250;52.320;0.360;2023-07-31T04:16:44;0.90;;;0.50;;
42616;SDS011;28250;52.320;0.360;2023-07-31T04:19:10;1.67;;;0.38;;
42616;SDS011;28250;52.320;0.360;2023-07-31T04:21:36;2.67;;;0.57;;
42616;SDS011;28250;52.320;0.360;2023-07-31T04:24:02;1.45;;;0.60;;
42616;SDS011;28250;52.320;0.360;2023-07-31T04:26:28;3.85;;;0.57;;
42616;SDS011;28250;52.320;0.360;2023-07-31T04:28:54;1.15;;;0.40;;
42616;SDS011;28250;52.320;0.360;2023-07-31T04:31:20;2.00;;;0.70;;
42616;SDS011;28250;52.320;0.360;2023-07-31T04:33:46;1.88;;;0.45;;
42616;SDS011;28250;52.320;0.360;2023-07-31T04:36:12;6.18;;;0.50;;
42616;SDS011;28250;52.320;0.360;2023-07-31T04:38:38;1.92;;;0.50;;
42616;SDS011;28250;52.320;0.360;2023-07-31T04:41:04;3.85;;;0.80;;
42616;SDS011;28250;52.320;0.360;2023-07-31T04:43:30;1.47;;;0.50;;
42616;SDS011;28250;52.320;0.360;2023-07-31T04:45:56;0.88;;;0.55;;
42616;SDS011;28250;52.320;0.360;2023-07-31T04:48:23;1.43;;;0.60;;
42616;SDS011;28250;52.320;0.360;2023-07-31T04:50:49;2.33;;;0.60;;
42616;SDS011;28250;52.320;0.360;2023-07-31T04:53:15;4.05;;;0.50;;
42616;SDS011;28250;52.320;0.360;2023-07-31T04:55:41;3.45;;;0.40;;
42616;SDS011;28250;52.320;0.360;2023-07-31T04:58:07;2.22;;;0.60;;
42616;SDS011;28250;52.320;0.360;2023-07-31T05:00:33;1.38;;;0.45;;
42616;SDS011;28250;52.320;0.360;2023-07-31T05:02:59;2.08;;;0.50;;
42616;SDS011;28250;52.320;0.360;2023-07-31T05:05:25;1.92;;;0.73;;
42616;SDS011;28250;52.320;0.360;2023-07-31T05:07:51;2.58;;;0.70;;
42616;SDS011;28250;52.320;0.360;2023-07-31T05:10:17;1.80;;;0.60;;
42616;SDS011;28250;52.320;0.360;2023-07-31T05:12:43;1.40;;;0.75;;
42616;SDS011;28250;52.320;0.360;2023-07-31T05:15:09;2.40;;;1.13;;
42616;SDS011;28250;52.320;0.360;2023-07-31T05:17:35;0.70;;;0.57;;
42616;SDS011;28250;52.320;0.360;2023-07-31T05:20:01;3.85;;;0.77;;
42616;SDS011;28250;52.320;0.360;2023-07-31T05:22:27;2.33;;;0.65;;
42616;SDS011;28250;52.320;0.360;2023-07-31T05:24:53;1.40;;;0.60;;
42616;SDS011;28250;52.320;0.360;2023-07-31T05:27:19;1.70;;;0.40;;
42616;SDS011;28250;52.320;0.360;2023-07-31T05:29:45;1.17;;;0.57;;
42616;SDS011;28250;52.320;0.360;2023-07-31T05:32:11;2.38;;;0.60;;
42616;SDS011;28250;52.320;0.360;2023-07-31T05:34:37;1.55;;;0.60;;
42616;SDS011;28250;52.320;0.360;2023-07-31T05:37:03;1.58;;;0.68;;
42616;SDS011;28250;52.320;0.360;2023-07-31T05:41:56;1.38;;;0.68;;
42616;SDS011;28250;52.320;0.360;2023-07-31T05:44:23;1.70;;;0.68;;
42616;SDS011;28250;52.320;0.360;2023-07-31T05:46:49;1.92;;;0.70;;
42616;SDS011;28250;52.320;0.360;2023-07-31T05:49:15;3.33;;;0.90;;
42616;SDS011;28250;52.320;0.360;2023-07-31T05:51:41;4.20;;;0.70;;
42616;SDS011;28250;52.320;0.360;2023-07-31T05:54:07;1.30;;;0.82;;
42616;SDS011;28250;52.320;0.360;2023-07-31T05:56:33;3.38;;;0.75;;
42616;SDS011;28250;52.320;0.360;2023-07-31T05:58:59;2.40;;;0.90;;
42616;SDS011;28250;52.320;0.360;2023-07-31T06:01:25;1.65;;;0.50;;
42616;SDS011;28250;52.320;0.360;2023-07-31T06:03:51;3.00;;;0.57;;
42616;SDS011;28250;52.320;0.360;2023-07-31T06:06:17;2.08;;;0.88;;
42616;SDS011;28250;52.320;0.360;2023-07-31T06:08:43;6.72;;;1.77;;
42616;SDS011;28250;52.320;0.360;2023-07-31T06:11:09;2.13;;;0.80;;
42616;SDS011;28250;52.320;0.360;2023-07-31T06:13:35;3.13;;;0.80;;
42616;SDS011;28250;52.320;0.360;2023-07-31T06:16:01;1.33;;;0.68;;
42616;SDS011;28250;52.320;0.360;2023-07-31T06:18:31;3.22;;;0.68;;
42616;SDS011;28250;52.320;0.360;2023-07-31T06:20:58;1.55;;;0.50;;
42616;SDS011;28250;52.320;0.360;2023-07-31T06:23:24;2.00;;;0.80;;
42616;SDS011;28250;52.320;0.360;2023-07-31T06:25:50;0.65;;;0.40;;
42616;SDS011;28250;52.320;0.360;2023-07-31T06:28:16;2.45;;;1.05;;
42616;SDS011;28250;52.320;0.360;2023-07-31T06:30:42;6.13;;;0.88;;
42616;SDS011;28250;52.320;0.360;2023-07-31T06:33:08;1.27;;;0.60;;
42616;SDS011;28250;52.320;0.360;2023-07-31T06:35:34;0.95;;;0.50;;
42616;SDS011;28250;52.320;0.360;2023-07-31T06:38:00;2.85;;;0.88;;
42616;SDS011;28250;52.320;0.360;2023-07-31T06:40:27;2.15;;;0.50;;
42616;SDS011;28250;52.320;0.360;2023-07-31T06:42:54;2.38;;;0.47;;
42616;SDS011;28250;52.320;0.360;2023-07-31T06:45:20;1.45;;;0.68;;
42616;SDS011;28250;52.320;0.360;2023-07-31T06:47:47;2.45;;;0.82;;
42616;SDS011;28250;52.320;0.360;2023-07-31T06:50:13;3.03;;;0.57;;
42616;SDS011;28250;52.320;0.360;2023-07-31T06:52:39;1.33;;;0.70;;
42616;SDS011;28250;52.320;0.360;2023-07-31T06:55:20;2.00;;;0.82;;
42616;SDS011;28250;52.320;0.360;2023-07-31T06:57:48;4.25;;;1.48;;
42616;SDS011;28250;52.320;0.360;2023-07-31T07:00:16;3.55;;;1.00;;
42616;SDS011;28250;52.320;0.360;2023-07-31T07:02:43;3.13;;;1.00;;
42616;SDS011;28250;52.320;0.360;2023-07-31T07:05:10;2.80;;;1.23;;
42616;SDS011;28250;52.320;0.360;2023-07-31T07:07:36;2.92;;;1.30;;
42616;SDS011;28250;52.320;0.360;2023-07-31T07:10:02;3.17;;;1.38;;
42616;SDS011;28250;52.320;0.360;2023-07-31T07:12:30;3.72;;;1.30;;
42616;SDS011;28250;52.320;0.360;2023-07-31T07:14:58;4.50;;;1.65;;
42616;SDS011;28250;52.320;0.360;2023-07-31T07:17:25;3.72;;;1.50;;
42616;SDS011;28250;52.320;0.360;2023-07-31T07:19:53;6.35;;;1.75;;
42616;SDS011;28250;52.320;0.360;2023-07-31T07:22:20;3.97;;;1.80;;
42616;SDS011;28250;52.320;0.360;2023-07-31T07:24:46;4.80;;;1.90;;
42616;SDS011;28250;52.320;0.360;2023-07-31T07:27:12;3.55;;;1.55;;
42616;SDS011;28250;52.320;0.360;2023-07-31T07:29:38;3.30;;;1.80;;
42616;SDS011;28250;52.320;0.360;2023-07-31T07:32:04;3.72;;;1.90;;
42616;SDS011;28250;52.320;0.360;2023-07-31T07:34:31;3.35;;;1.85;;
42616;SDS011;28250;52.320;0.360;2023-07-31T07:36:57;2.50;;;1.80;;
42616;SDS011;28250;52.320;0.360;2023-07-31T07:39:23;4.55;;;2.00;;
42616;SDS011;28250;52.320;0.360;2023-07-31T07:41:50;6.60;;;2.13;;
42616;SDS011;28250;52.320;0.360;2023-07-31T07:44:16;4.70;;;1.75;;
42616;SDS011;28250;52.320;0.360;2023-07-31T07:46:43;2.63;;;1.77;;
42616;SDS011;28250;52.320;0.360;2023-07-31T07:49:09;4.63;;;1.98;;
42616;SDS011;28250;52.320;0.360;2023-07-31T07:51:35;2.80;;;1.45;;
42616;SDS011;28250;52.320;0.360;2023-07-31T07:54:02;4.20;;;1.50;;
42616;SDS011;28250;52.320;0.360;2023-07-31T07:56:28;2.13;;;1.58;;
42616;SDS011;28250;52.320;0.360;2023-07-31T07:58:54;3.35;;;2.00;;
42616;SDS011;28250;52.320;0.360;2023-07-31T08:01:20;5.30;;;2.13;;
42616;SDS011;28250;52.320;0.360;2023-07-31T08:03:47;4.47;;;1.90;;
42616;SDS011;28250;52.320;0.360;2023-07-31T08:06:13;3.33;;;2.22;;
42616;SDS011;28250;52.320;0.360;2023-07-31T08:08:40;4.55;;;2.10;;
42616;SDS011;28250;52.320;0.360;2023-07-31T08:11:05;2.53;;;1.63;;
42616;SDS011;28250;52.320;0.360;2023-07-31T08:13:32;2.67;;;1.50;;
42616;SDS011;28250;52.320;0.360;2023-07-31T08:15:58;5.38;;;1.83;;
42616;SDS011;28250;52.320;0.360;2023-07-31T08:18:24;4.72;;;1.52;;
42616;SDS011;28250;52.320;0.360;2023-07-31T08:20:50;3.22;;;1.90;;
42616;SDS011;28250;52.320;0.360;2023-07-31T08:23:16;3.00;;;1.80;;
42616;SDS011;28250;52.320;0.360;2023-07-31T08:25:42;2.85;;;1.70;;
42616;SDS011;28250;52.320;0.360;2023-07-31T08:28:08;4.05;;;1.80;;
42616;SDS011;28250;52.320;0.360;2023-07-31T08:30:34;3.40;;;1.90;;
42616;SDS011;28250;52.320;0.360;2023-07-31T08:33:00;2.90;;;1.73;;
42616;SDS011;28250;52.320;0.360;2023-07-31T08:35:26;3.80;;;1.90;;
42616;SDS011;28250;52.320;0.360;2023-07-31T08:37:53;3.25;;;1.70;;
42616;SDS011;28250;52.320;0.360;2023-07-31T08:40:20;2.97;;;1.67;;
42616;SDS011;28250;52.320;0.360;2023-07-31T08:42:50;3.47;;;2.00;;
42616;SDS011;28250;52.320;0.360;2023-07-31T08:45:19;3.42;;;2.10;;
42616;SDS011;28250;52.320;0.360;2023-07-31T08:47:46;2.60;;;1.80;;
42616;SDS011;28250;52.320;0.360;2023-07-31T08:50:16;5.15;;;2.72;;
42616;SDS011;28250;52.320;0.360;2023-07-31T08:52:46;3.55;;;1.58;;
42616;SDS011;28250;52.320;0.360;2023-07-31T08:55:15;3.50;;;1.70;;
42616;SDS011;28250;52.320;0.360;2023-07-31T08:57:42;2.42;;;1.80;;
42616;SDS011;28250;52.320;0.360;2023-07-31T09:00:09;3.08;;;1.98;;
42616;SDS011;28250;52.320;0.360;2023-07-31T09:02:46;4.97;;;2.00;;
42616;SDS011;28250;52.320;0.360;2023-07-31T09:05:21;3.53;;;1.67;;
42616;SDS011;28250;52.320;0.360;2023-07-31T09:07:48;3.05;;;1.90;;
42616;SDS011;28250;52.320;0.360;2023-07-31T09:10:16;4.05;;;1.98;;
42616;SDS011;28250;52.320;0.360;2023-07-31T09:12:42;4.15;;;1.50;;
42616;SDS011;28250;52.320;0.360;2023-07-31T09:15:11;2.88;;;2.03;;
42616;SDS011;28250;52.320;0.360;2023-07-31T09:17:37;9.02;;;2.03;;
42616;SDS011;28250;52.320;0.360;2023-07-31T09:20:13;2.97;;;2.10;;
42616;SDS011;28250;52.320;0.360;2023-07-31T09:22:39;3.60;;;2.50;;
42616;SDS011;28250;52.320;0.360;2023-07-31T09:27:57;4.20;;;2.55;;
42616;SDS011;28250;52.320;0.360;2023-07-31T09:30:26;4.82;;;2.40;;
42616;SDS011;28250;52.320;0.360;2023-07-31T09:33:05;5.13;;;2.58;;
42616;SDS011;28250;52.320;0.360;2023-07-31T09:35:35;6.57;;;2.38;;
42616;SDS011;28250;52.320;0.360;2023-07-31T09:38:03;4.32;;;2.13;;
42616;SDS011;28250;52.320;0.360;2023-07-31T09:40:40;7.68;;;2.58;;
42616;SDS011;28250;52.320;0.360;2023-07-31T09:43:20;3.93;;;2.50;;
42616;SDS011;28250;52.320;0.360;2023-07-31T09:45:47;3.30;;;2.33;;
42616;SDS011;28250;52.320;0.360;2023-07-31T09:48:20;7.05;;;2.65;;
42616;SDS011;28250;52.320;0.360;2023-07-31T09:50:50;4.80;;;2.40;;
42616;SDS011;28250;52.320;0.360;2023-07-31T09:53:16;5.68;;;2.90;;
42616;SDS011;28250;52.320;0.360;2023-07-31T09:55:42;5.25;;;2.42;;
42616;SDS011;28250;52.320;0.360;2023-07-31T09:58:10;5.38;;;2.80;;
42616;SDS011;28250;52.320;0.360;2023-07-31T10:00:37;4.70;;;2.95;;
42616;SDS011;28250;52.320;0.360;2023-07-31T10:03:04;4.68;;;2.78;;
42616;SDS011;28250;52.320;0.360;2023-07-31T10:05:36;4.70;;;2.88;;
42616;SDS011;28250;52.320;0.360;2023-07-31T10:08:07;9.13;;;2.75;;
42616;SDS011;28250;52.320;0.360;2023-07-31T10:10:36;4.22;;;2.65;;
42616;SDS011;28250;52.320;0.360;2023-07-31T10:15:29;3.90;;;2.20;;
42616;SDS011;28250;52.320;0.360;2023-07-31T10:17:55;5.33;;;2.70;;
42616;SDS011;28250;52.320;0.360;2023-07-31T10:20:23;5.68;;;2.63;;
42616;SDS011;28250;52.320;0.360;2023-07-31T10:22:50;3.75;;;2.20;;
42616;SDS011;28250;52.320;0.360;2023-07-31T10:25:17;3.92;;;2.28;;
42616;SDS011;28250;52.320;0.360;2023-07-31T10:27:45;4.78;;;2.10;;
42616;SDS011;28250;52.320;0.360;2023-07-31T10:30:14;3.35;;;2.13;;
42616;SDS011;28250;52.320;0.360;2023-07-31T10:32:44;6.50;;;2.25;;
42616;SDS011;28250;52.320;0.360;2023-07-31T10:35:11;5.95;;;2.40;;
42616;SDS011;28250;52.320;0.360;2023-07-31T10:37:39;4.50;;;2.27;;
42616;SDS011;28250;52.320;0.360;2023-07-31T10:40:10;4.50;;;1.80;;
42616;SDS011;28250;52.320;0.360;2023-07-31T10:42:55;5.13;;;2.40;;
42616;SDS011;28250;52.320;0.360;2023-07-31T10:47:58;4.80;;;2.13;;
42616;SDS011;28250;52.320;0.360;2023-07-31T10:50:32;5.28;;;2.30;;
42616;SDS011;28250;52.320;0.360;2023-07-31T10:53:03;3.92;;;2.25;;
42616;SDS011;28250;52.320;0.360;2023-07-31T10:55:38;5.00;;;2.17;;
42616;SDS011;28250;52.320;0.360;2023-07-31T10:58:07;4.90;;;1.98;;
42616;SDS011;28250;52.320;0.360;2023-07-31T11:00:44;5.85;;;1.70;;
42616;SDS011;28250;52.320;0.360;2023-07-31T11:03:15;3.05;;;2.13;;
42616;SDS011;28250;52.320;0.360;2023-07-31T11:05:47;5.70;;;2.40;;
42616;SDS011;28250;52.320;0.360;2023-07-31T11:08:26;3.80;;;1.75;;
42616;SDS011;28250;52.320;0.360;2023-07-31T11:16:05;3.65;;;1.73;;
42616;SDS011;28250;52.320;0.360;2023-07-31T11:18:31;3.00;;;1.67;;
42616;SDS011;28250;52.320;0.360;2023-07-31T11:20:57;2.65;;;1.63;;
42616;SDS011;28250;52.320;0.360;2023-07-31T11:23:23;3.60;;;1.50;;
42616;SDS011;28250;52.320;0.360;2023-07-31T11:25:49;2.40;;;1.40;;
42616;SDS011;28250;52.320;0.360;2023-07-31T11:30:44;3.92;;;1.50;;
42616;SDS011;28250;52.320;0.360;2023-07-31T11:33:13;3.35;;;1.63;;
42616;SDS011;28250;52.320;0.360;2023-07-31T11:35:44;3.10;;;1.63;;
42616;SDS011;28250;52.320;0.360;2023-07-31T11:41:08;3.30;;;1.48;;
42616;SDS011;28250;52.320;0.360;2023-07-31T11:43:34;2.55;;;1.48;;
42616;SDS011;28250;52.320;0.360;2023-07-31T11:46:01;3.45;;;2.08;;
42616;SDS011;28250;52.320;0.360;2023-07-31T11:48:29;6.97;;;1.70;;
42616;SDS011;28250;52.320;0.360;2023-07-31T11:51:05;3.83;;;1.40;;
42616;SDS011;28250;52.320;0.360;2023-07-31T11:53:43;5.88;;;1.55;;
42616;SDS011;28250;52.320;0.360;2023-07-31T11:56:23;3.25;;;1.67;;
42616;SDS011;28250;52.320;0.360;2023-07-31T11:58:52;3.50;;;1.60;;
42616;SDS011;28250;52.320;0.360;2023-07-31T12:01:26;1.70;;;1.35;;
42616;SDS011;28250;52.320;0.360;2023-07-31T12:03:55;4.63;;;1.55;;
42616;SDS011;28250;52.320;0.360;2023-07-31T12:06:22;2.17;;;1.30;;
42616;SDS011;28250;52.320;0.360;2023-07-31T12:09:04;1.95;;;1.15;;
42616;SDS011;28250;52.320;0.360;2023-07-31T12:11:31;4.78;;;1.80;;
42616;SDS011;28250;52.320;0.360;2023-07-31T12:14:18;4.57;;;1.55;;
42616;SDS011;28250;52.320;0.360;2023-07-31T12:19:29;3.25;;;1.27;;
42616;SDS011;28250;52.320;0.360;2023-07-31T12:21:57;4.20;;;1.60;;
42616;SDS011;28250;52.320;0.360;2023-07-31T12:24:26;4.82;;;1.60;;
42616;SDS011;28250;52.320;0.360;2023-07-31T12:26:52;5.20;;;1.50;;
42616;SDS011;28250;52.320;0.360;2023-07-31T12:29:20;3.65;;;1.88;;
42616;SDS011;28250;52.320;0.360;2023-07-31T12:31:46;4.00;;;1.55;;
42616;SDS011;28250;52.320;0.360;2023-07-31T12:34:16;4.75;;;1.70;;
42616;SDS011;28250;52.320;0.360;2023-07-31T12:36:43;5.28;;;1.98;;
42616;SDS011;28250;52.320;0.360;2023-07-31T12:39:10;4.97;;;2.00;;
42616;SDS011;28250;52.320;0.360;2023-07-31T12:41:36;2.53;;;1.67;;
42616;SDS011;28250;52.320;0.360;2023-07-31T12:44:02;6.03;;;1.80;;
42616;SDS011;28250;52.320;0.360;2023-07-31T12:46:28;3.10;;;2.22;;
42616;SDS011;28250;52.320;0.360;2023-07-31T12:48:55;3.65;;;1.85;;
42616;SDS011;28250;52.320;0.360;2023-07-31T12:51:20;5.35;;;2.30;;
42616;SDS011;28250;52.320;0.360;2023-07-31T12:53:46;4.72;;;2.08;;
42616;SDS011;28250;52.320;0.360;2023-07-31T12:56:12;5.60;;;2.00;;
42616;SDS011;28250;52.320;0.360;2023-07-31T12:58:38;3.63;;;2.42;;
42616;SDS011;28250;52.320;0.360;2023-07-31T13:01:04;4.15;;;1.92;;
42616;SDS011;28250;52.320;0.360;2023-07-31T13:03:31;7.05;;;2.13;;
42616;SDS011;28250;52.320;0.360;2023-07-31T13:05:57;5.15;;;2.53;;
42616;SDS011;28250;52.320;0.360;2023-07-31T13:08:24;8.35;;;2.60;;
42616;SDS011;28250;52.320;0.360;2023-07-31T13:10:50;11.68;;;2.60;;
42616;SDS011;28250;52.320;0.360;2023-07-31T13:13:16;5.63;;;1.98;;
42616;SDS011;28250;52.320;0.360;2023-07-31T13:15:43;7.15;;;2.70;;
42616;SDS011;28250;52.320;0.360;2023-07-31T13:18:10;7.03;;;2.92;;
42616;SDS011;28250;52.320;0.360;2023-07-31T13:20:36;6.15;;;3.03;;
42616;SDS011;28250;52.320;0.360;2023-07-31T13:23:01;5.45;;;3.20;;
42616;SDS011;28250;52.320;0.360;2023-07-31T13:25:27;9.10;;;3.63;;
42616;SDS011;28250;52.320;0.360;2023-07-31T13:27:53;11.68;;;3.63;;
42616;SDS011;28250;52.320;0.360;2023-07-31T13:30:20;8.98;;;3.60;;
42616;SDS011;28250;52.320;0.360;2023-07-31T13:32:46;8.27;;;3.63;;
42616;SDS011;28250;52.320;0.360;2023-07-31T13:35:12;5.65;;;3.60;;
42616;SDS011;28250;52.320;0.360;2023-07-31T13:37:38;7.13;;;3.30;;
42616;SDS011;28250;52.320;0.360;2023-07-31T13:40:04;15.27;;;4.05;;
42616;SDS011;28250;52.320;0.360;2023-07-31T13:42:31;8.43;;;3.50;;
42616;SDS011;28250;52.320;0.360;2023-07-31T13:44:58;9.02;;;3.70;;
42616;SDS011;28250;52.320;0.360;2023-07-31T13:47:24;8.35;;;3.95;;
42616;SDS011;28250;52.320;0.360;2023-07-31T13:49:50;7.55;;;3.92;;
42616;SDS011;28250;52.320;0.360;2023-07-31T13:52:16;8.88;;;4.28;;
42616;SDS011;28250;52.320;0.360;2023-07-31T13:54:42;9.98;;;4.60;;
42616;SDS011;28250;52.320;0.360;2023-07-31T13:57:08;9.43;;;4.30;;
42616;SDS011;28250;52.320;0.360;2023-07-31T13:59:34;9.75;;;3.50;;
42616;SDS011;28250;52.320;0.360;2023-07-31T14:02:01;11.65;;;5.72;;
42616;SDS011;28250;52.320;0.360;2023-07-31T14:04:28;9.63;;;4.85;;
42616;SDS011;28250;52.320;0.360;2023-07-31T14:06:55;13.18;;;4.72;;
42616;SDS011;28250;52.320;0.360;2023-07-31T14:09:22;10.30;;;4.72;;
42616;SDS011;28250;52.320;0.360;2023-07-31T14:11:48;9.95;;;4.60;;
42616;SDS011;28250;52.320;0.360;2023-07-31T14:14:14;11.32;;;4.43;;
42616;SDS011;28250;52.320;0.360;2023-07-31T14:16:40;13.10;;;4.60;;
42616;SDS011;28250;52.320;0.360;2023-07-31T14:19:06;10.15;;;4.10;;
42616;SDS011;28250;52.320;0.360;2023-07-31T14:21:33;10.95;;;4.20;;
42616;SDS011;28250;52.320;0.360;2023-07-31T14:23:59;9.60;;;4.15;;
42616;SDS011;28250;52.320;0.360;2023-07-31T14:26:25;8.35;;;4.10;;
42616;SDS011;28250;52.320;0.360;2023-07-31T14:28:51;13.23;;;4.53;;
42616;SDS011;28250;52.320;0.360;2023-07-31T14:31:17;9.15;;;4.65;;
42616;SDS011;28250;52.320;0.360;2023-07-31T14:33:43;10.23;;;4.72;;
42616;SDS011;28250;52.320;0.360;2023-07-31T14:36:09;12.07;;;4.80;;
42616;SDS011;28250;52.320;0.360;2023-07-31T14:38:35;14.45;;;4.55;;
42616;SDS011;28250;52.320;0.360;2023-07-31T14:41:01;8.88;;;4.50;;
42616;SDS011;28250;52.320;0.360;2023-07-31T14:43:27;12.60;;;4.45;;
42616;SDS011;28250;52.320;0.360;2023-07-31T14:45:53;9.77;;;4.07;;
42616;SDS011;28250;52.320;0.360;2023-07-31T14:48:23;8.82;;;4.63;;
42616;SDS011;28250;52.320;0.360;2023-07-31T14:50:49;9.63;;;4.38;;
42616;SDS011;28250;52.320;0.360;2023-07-31T14:53:15;7.50;;;4.07;;
42616;SDS011;28250;52.320;0.360;2023-07-31T14:55:41;7.78;;;4.07;;
42616;SDS011;28250;52.320;0.360;2023-07-31T14:58:07;7.78;;;4.47;;
42616;SDS011;28250;52.320;0.360;2023-07-31T15:00:33;12.05;;;4.72;;
42616;SDS011;28250;52.320;0.360;2023-07-31T15:02:59;8.90;;;4.05;;
42616;SDS011;28250;52.320;0.360;2023-07-31T15:05:25;11.30;;;4.25;;
42616;SDS011;28250;52.320;0.360;2023-07-31T15:07:51;9.43;;;4.20;;
42616;SDS011;28250;52.320;0.360;2023-07-31T15:10:17;11.02;;;4.78;;
42616;SDS011;28250;52.320;0.360;2023-07-31T15:12:43;9.25;;;4.03;;
42616;SDS011;28250;52.320;0.360;2023-07-31T15:15:09;11.85;;;4.05;;
42616;SDS011;28250;52.320;0.360;2023-07-31T15:17:35;6.32;;;3.63;;
42616;SDS011;28250;52.320;0.360;2023-07-31T15:20:01;10.63;;;3.83;;
42616;SDS011;28250;52.320;0.360;2023-07-31T15:22:27;9.68;;;4.38;;